Time;durP1;ratioP1;P1;durP2;ratioP2;P2;SDS_P1;SDS_P2;PMS_P1;PMS_P2;Temp;Humidity;BMP_temperature;BMP_pressure;BME280_temperature;BME280_humidity;BME280_pressure;Samples;Min_cycle;Max_cycle;Signal;HPM_P1;HPM_P2
2022/06/26 00:01:35;;;;;;;1.4;1.1;;;;;;;19.15;79.1748;936.0347;;;;
2022/06/26 00:04:04;;;;;;;1;1;;;;;;;18.97;79.8291;936.0531;;;;
2022/06/26 00:06:30;;;;;;;1.1;1.1;;;;;;;18.83;80.50195;935.9977;;;;
2022/06/26 00:08:57;;;;;;;1.2;1.1;;;;;;;18.82;80.61719;936.002;;;;
2022/06/26 00:11:33;;;;;;;1.4;1.2;;;;;;;18.87;80.75391;936.0056;;;;
2022/06/26 00:14:00;;;;;;;1.3;0.9;;;;;;;18.88;80.69727;936.019;;;;
2022/06/26 00:16:27;;;;;;;1.3;1;;;;;;;18.88;80.52246;936.0481;;;;
2022/06/26 00:18:56;;;;;;;2;1.1;;;;;;;18.84;81.03906;936.0863;;;;
2022/06/26 00:21:19;;;;;;;1.3;1.1;;;;;;;18.83;81.8291;936.0479;;;;
2022/06/26 00:23:45;;;;;;;1;1;;;;;;;18.86;81.05469;936.0003;;;;
2022/06/26 00:26:14;;;;;;;2.3;1.3;;;;;;;18.8;81.12402;936.0952;;;;
2022/06/26 00:28:45;;;;;;;1.2;0.9;;;;;;;18.69;81.23242;936.1456;;;;
2022/06/26 00:31:10;;;;;;;1.1;1;;;;;;;18.56;81.94141;936.1522;;;;
2022/06/26 00:33:39;;;;;;;1.2;1.1;;;;;;;18.64;81.73535;936.137;;;;
2022/06/26 00:36:03;;;;;;;1.7;1.1;;;;;;;18.58;81.82813;936.1509;;;;
2022/06/26 00:38:31;;;;;;;2.6;1.3;;;;;;;18.51;82.29199;936.142;;;;
2022/06/26 00:40:56;;;;;;;1.2;1.1;;;;;;;18.37;82.68652;936.1677;;;;
2022/06/26 00:43:25;;;;;;;1.3;1;;;;;;;18.37;82.82617;936.2112;;;;
2022/06/26 00:45:57;;;;;;;1.1;0.9;;;;;;;18.34;82.7959;936.195;;;;
2022/06/26 00:48:29;;;;;;;1.1;1;;;;;;;18.28;83.09863;936.2294;;;;
2022/06/26 00:51:02;;;;;;;1.3;1.2;;;;;;;18.11;83.56348;936.259;;;;
2022/06/26 00:53:31;;;;;;;1;1;;;;;;;18.2;83.08301;936.3301;;;;
2022/06/26 00:55:56;;;;;;;1.2;1.1;;;;;;;18.34;83.3291;936.3555;;;;
2022/06/26 00:58:27;;;;;;;0.8;0.8;;;;;;;18.45;82.38477;936.4275;;;;
2022/06/26 01:00:52;;;;;;;1.2;1.1;;;;;;;18.45;82.61914;936.4419;;;;
2022/06/26 01:03:21;;;;;;;2.2;1.1;;;;;;;18.54;82.1123;936.392;;;;
2022/06/26 01:05:51;;;;;;;1.8;1.1;;;;;;;18.61;82.35742;936.3373;;;;
2022/06/26 01:08:16;;;;;;;1.4;1.3;;;;;;;18.71;81.51465;936.3549;;;;
2022/06/26 01:10:43;;;;;;;1.4;1.1;;;;;;;18.76;81.31543;936.3624;;;;
2022/06/26 01:13:08;;;;;;;1.2;1.1;;;;;;;18.78;81.03906;936.3351;;;;
2022/06/26 01:15:34;;;;;;;1.3;1.2;;;;;;;18.84;80.71387;936.3768;;;;
2022/06/26 01:17:59;;;;;;;1.9;1.1;;;;;;;18.77;80.54883;936.3814;;;;
2022/06/26 01:20:25;;;;;;;1.4;1.3;;;;;;;18.79;80.82031;936.4036;;;;
2022/06/26 01:22:56;;;;;;;1;1;;;;;;;18.75;80.94141;936.4214;;;;
2022/06/26 01:25:28;;;;;;;1.1;1;;;;;;;18.7;81.50098;936.426;;;;
2022/06/26 01:27:56;;;;;;;0.9;0.9;;;;;;;18.71;81.89844;936.4143;;;;
2022/06/26 01:30:27;;;;;;;1.5;0.9;;;;;;;18.74;81.6377;936.4838;;;;
2022/06/26 01:32:52;;;;;;;2;1;;;;;;;18.56;82.15039;936.4247;;;;
2022/06/26 01:35:22;;;;;;;1.1;0.8;;;;;;;18.47;82.77539;936.4647;;;;
2022/06/26 01:37:48;;;;;;;1;0.9;;;;;;;18.56;82.39551;936.4327;;;;
2022/06/26 01:40:20;;;;;;;2.1;0.9;;;;;;;18.62;82.3584;936.5452;;;;
2022/06/26 01:42:45;;;;;;;1.1;0.8;;;;;;;18.61;82.42676;936.505;;;;
2022/06/26 01:45:21;;;;;;;1.2;1;;;;;;;18.65;80.92285;936.4998;;;;
2022/06/26 01:47:52;;;;;;;1;0.9;;;;;;;18.57;81.5127;936.5244;;;;
2022/06/26 01:50:19;;;;;;;2.4;1;;;;;;;18.63;81.5127;936.4783;;;;
2022/06/26 01:52:49;;;;;;;1.3;0.8;;;;;;;18.67;81.45117;936.4645;;;;
2022/06/26 01:55:16;;;;;;;1;1;;;;;;;18.69;81.75586;936.4802;;;;
2022/06/26 01:57:42;;;;;;;1.3;1;;;;;;;18.76;81.03613;936.4503;;;;
2022/06/26 02:00:08;;;;;;;1.1;1;;;;;;;18.75;81.1377;936.495;;;;
2022/06/26 02:02:36;;;;;;;1.3;1.1;;;;;;;18.7;81.22363;936.517;;;;
2022/06/26 02:05:01;;;;;;;1.2;1.1;;;;;;;18.6;81.72754;936.4996;;;;
2022/06/26 02:07:27;;;;;;;1.2;1.1;;;;;;;18.68;81.8252;936.4602;;;;
2022/06/26 02:14:51;;;;;;;1.1;1;;;;;;;18.67;81.24219;936.4934;;;;
2022/06/26 02:17:18;;;;;;;1.1;1;;;;;;;18.65;81.05078;936.5208;;;;
2022/06/26 02:19:44;;;;;;;1.2;1.1;;;;;;;18.57;81.8252;936.5486;;;;
2022/06/26 02:22:12;;;;;;;1;1;;;;;;;18.58;82.29395;936.4838;;;;
2022/06/26 02:24:37;;;;;;;1.7;1;;;;;;;18.53;82.85547;936.481;;;;
2022/06/26 02:27:08;;;;;;;1.1;1;;;;;;;18.6;82.33203;936.5286;;;;
2022/06/26 02:29:33;;;;;;;1.1;1;;;;;;;18.56;82.30176;936.5361;;;;
2022/06/26 02:31:58;;;;;;;0.9;0.9;;;;;;;18.56;82.34863;936.4755;;;;
2022/06/26 02:34:24;;;;;;;1.3;1.2;;;;;;;18.59;81.95605;936.5604;;;;
2022/06/26 02:36:49;;;;;;;2.3;1.2;;;;;;;18.59;81.92188;936.5862;;;;
2022/06/26 02:39:17;;;;;;;1.1;1.1;;;;;;;18.61;81.96191;936.5929;;;;
2022/06/26 02:41:42;;;;;;;0.8;0.8;;;;;;;18.55;81.88184;936.6105;;;;
2022/06/26 02:44:11;;;;;;;1.1;1;;;;;;;18.47;82.57715;936.5438;;;;
2022/06/26 02:46:38;;;;;;;1;1;;;;;;;18.59;82.41016;936.6555;;;;
2022/06/26 02:49:07;;;;;;;0.7;0.7;;;;;;;18.61;82.36816;936.6356;;;;
2022/06/26 02:51:38;;;;;;;3.7;1;;;;;;;18.59;81.74902;936.6248;;;;
2022/06/26 02:54:02;;;;;;;1.1;1.1;;;;;;;18.52;81.53906;936.6038;;;;
2022/06/26 02:56:28;;;;;;;0.8;0.8;;;;;;;18.31;82.40723;936.627;;;;
2022/06/26 02:58:55;;;;;;;1.2;0.9;;;;;;;18.31;82.87109;936.59;;;;
2022/06/26 03:01:26;;;;;;;1.5;0.9;;;;;;;18.4;82.83105;936.6361;;;;
2022/06/26 03:03:55;;;;;;;2.3;1.1;;;;;;;18.5;82.82715;936.647;;;;
2022/06/26 03:06:20;;;;;;;1.1;1;;;;;;;18.62;82.26563;936.7048;;;;
2022/06/26 03:08:50;;;;;;;1.1;1;;;;;;;18.63;82.57129;936.7205;;;;
2022/06/26 03:11:15;;;;;;;1.8;1.4;;;;;;;18.63;82.04785;936.7237;;;;
2022/06/26 03:13:44;;;;;;;1.4;1.1;;;;;;;18.62;82.45313;936.7421;;;;
2022/06/26 03:16:15;;;;;;;0.9;0.9;;;;;;;18.64;82.51465;936.7952;;;;
2022/06/26 03:18:46;;;;;;;1.4;1.1;;;;;;;18.72;81.69238;936.8264;;;;
2022/06/26 03:21:11;;;;;;;2.3;1.2;;;;;;;18.69;82.23242;936.9246;;;;
2022/06/26 03:26:04;;;;;;;1;0.9;;;;;;;18.73;82.95117;936.9978;;;;
2022/06/26 03:28:29;;;;;;;2;1.4;;;;;;;18.78;82.75;937.0081;;;;
2022/06/26 03:30:56;;;;;;;1.4;1.1;;;;;;;18.7;83.22461;937.0494;;;;
2022/06/26 03:33:21;;;;;;;2.1;1.1;;;;;;;18.61;83.29883;937.1234;;;;
2022/06/26 03:35:46;;;;;;;1.3;1.2;;;;;;;18.56;83.69727;937.1142;;;;
2022/06/26 03:38:15;;;;;;;1.3;1;;;;;;;18.59;83.20313;937.0764;;;;
2022/06/26 03:40:39;;;;;;;1.6;1.3;;;;;;;18.61;83.47363;937.1631;;;;
2022/06/26 03:43:11;;;;;;;2.5;1.3;;;;;;;18.54;83.70605;937.1719;;;;
2022/06/26 03:45:34;;;;;;;1.6;1.1;;;;;;;18.49;84.33691;937.2109;;;;
2022/06/26 03:48:03;;;;;;;1.4;1.2;;;;;;;18.4;84.06152;937.2321;;;;
2022/06/26 03:50:29;;;;;;;2.9;1.4;;;;;;;18.33;84.57324;937.2464;;;;
2022/06/26 03:52:57;;;;;;;1.2;1.1;;;;;;;18.36;84.43848;937.2466;;;;
2022/06/26 03:55:27;;;;;;;1.5;1.3;;;;;;;18.37;84.54492;937.2473;;;;
2022/06/26 03:57:52;;;;;;;1.6;1;;;;;;;18.39;84.64355;937.2651;;;;
2022/06/26 04:02:33;;;;;;;2.2;1.3;;;;;;;18.42;84.69531;937.3602;;;;
2022/06/26 04:05:04;;;;;;;1.4;1.3;;;;;;;18.43;84.26465;937.4026;;;;
2022/06/26 04:07:29;;;;;;;1.9;1.3;;;;;;;18.35;84.56348;937.4396;;;;
2022/06/26 04:09:57;;;;;;;2.8;1.3;;;;;;;18.34;84.64258;937.4696;;;;
2022/06/26 04:12:23;;;;;;;2.2;1.3;;;;;;;18.38;83.97754;937.4767;;;;
2022/06/26 04:14:48;;;;;;;1.6;1.3;;;;;;;18.39;84.03906;937.5006;;;;
2022/06/26 04:17:13;;;;;;;1.1;1;;;;;;;18.43;83.98535;937.4711;;;;
2022/06/26 04:19:38;;;;;;;1.9;1.1;;;;;;;18.37;84.09375;937.5405;;;;
2022/06/26 04:22:05;;;;;;;2.1;1.3;;;;;;;18.37;83.75488;937.5633;;;;
2022/06/26 04:24:33;;;;;;;1.8;1.5;;;;;;;18.32;84.1416;937.6231;;;;
2022/06/26 04:27:01;;;;;;;1.6;1.3;;;;;;;18.31;83.58008;937.5815;;;;
2022/06/26 04:29:30;;;;;;;2.6;1.4;;;;;;;18.19;84.02246;937.5959;;;;
2022/06/26 04:31:55;;;;;;;1.5;1.4;;;;;;;18.15;84.26953;937.5128;;;;
2022/06/26 04:34:22;;;;;;;3;1.4;;;;;;;18.23;83.83301;937.5645;;;;
2022/06/26 04:36:47;;;;;;;1.7;1.2;;;;;;;18.23;84.43555;937.6178;;;;
2022/06/26 04:39:17;;;;;;;2.2;1.2;;;;;;;18.28;84.52637;937.6434;;;;
2022/06/26 04:41:47;;;;;;;1.9;1.4;;;;;;;18.35;84.36719;937.5967;;;;
2022/06/26 04:44:12;;;;;;;2.7;1.4;;;;;;;18.36;84.4043;937.6464;;;;
2022/06/26 04:46:40;;;;;;;1.6;1.4;;;;;;;18.39;84.43262;937.6822;;;;
2022/06/26 04:49:11;;;;;;;2.4;1.4;;;;;;;18.47;84.29688;937.6992;;;;
2022/06/26 04:51:43;;;;;;;1.9;1.2;;;;;;;18.56;83.83691;937.665;;;;
2022/06/26 04:54:11;;;;;;;1.2;1.1;;;;;;;18.52;83.71387;937.653;;;;
2022/06/26 04:56:36;;;;;;;1.2;1.1;;;;;;;18.54;83.45996;937.6397;;;;
2022/06/26 04:59:05;;;;;;;1.2;1;;;;;;;18.48;83.56543;937.6919;;;;
2022/06/26 05:01:30;;;;;;;1.3;1.2;;;;;;;18.6;83.61328;937.6834;;;;
2022/06/26 05:04:01;;;;;;;2.5;1.4;;;;;;;18.8;85.07031;937.7497;;;;
2022/06/26 05:06:32;;;;;;;2.5;1.3;;;;;;;19.78;82.11035;937.7051;;;;
2022/06/26 05:09:02;;;;;;;1.1;1;;;;;;;21.27;72.07813;937.7019;;;;
2022/06/26 05:11:27;;;;;;;1.5;1.3;;;;;;;21.84;70.2373;937.7371;;;;
2022/06/26 05:13:55;;;;;;;1.3;1;;;;;;;23.19;62.84863;937.6284;;;;
2022/06/26 05:16:25;;;;;;;1;0.9;;;;;;;24.07;60.00488;937.6323;;;;
2022/06/26 05:18:56;;;;;;;0.8;0.8;;;;;;;24.64;57.0752;937.5681;;;;
2022/06/26 05:21:27;;;;;;;0.9;0.8;;;;;;;24.78;57.71875;937.6266;;;;
2022/06/26 05:23:56;;;;;;;1.2;0.9;;;;;;;25.45;54.92285;937.61;;;;
2022/06/26 05:26:25;;;;;;;1.9;0.9;;;;;;;25.29;55.71875;937.6116;;;;
2022/06/26 05:28:50;;;;;;;1.6;1;;;;;;;24.98;54.71191;937.545;;;;
2022/06/26 05:31:20;;;;;;;1.5;0.7;;;;;;;25.79;53.3457;937.4891;;;;
2022/06/26 05:33:50;;;;;;;1.8;0.9;;;;;;;26.49;52.95508;937.4755;;;;
2022/06/26 05:36:22;;;;;;;1.4;0.8;;;;;;;27.05;49.27637;937.4988;;;;
2022/06/26 05:38:54;;;;;;;1;0.7;;;;;;;26.58;50.5498;937.4461;;;;
2022/06/26 05:41:27;;;;;;;1;0.7;;;;;;;26.13;51.83594;937.5489;;;;
2022/06/26 05:43:58;;;;;;;0.7;0.7;;;;;;;26.22;51.78809;937.4739;;;;
2022/06/26 05:46:28;;;;;;;0.7;0.7;;;;;;;27.15;51.29004;937.464;;;;
2022/06/26 05:48:59;;;;;;;1.3;0.8;;;;;;;27.66;50.32813;937.4211;;;;
2022/06/26 05:51:29;;;;;;;0.8;0.8;;;;;;;28.24;46.28027;937.4359;;;;
2022/06/26 05:54:00;;;;;;;1.9;1.1;;;;;;;27.65;47.25293;937.4701;;;;
2022/06/26 05:56:25;;;;;;;1.1;0.8;;;;;;;28.98;44.05859;937.43;;;;
2022/06/26 05:58:54;;;;;;;0.8;0.7;;;;;;;28.93;44.82715;937.4103;;;;
2022/06/26 06:01:19;;;;;;;1.2;0.8;;;;;;;28.9;45.57422;937.3958;;;;
2022/06/26 06:03:51;;;;;;;3.1;0.8;;;;;;;29.36;44.81055;937.3786;;;;
2022/06/26 06:06:24;;;;;;;1;0.7;;;;;;;29.82;44.24707;937.4286;;;;
2022/06/26 06:08:54;;;;;;;0.8;0.5;;;;;;;30.08;42.3877;937.3782;;;;
2022/06/26 06:11:23;;;;;;;0.6;0.6;;;;;;;29.75;42.37988;937.371;;;;
2022/06/26 06:13:48;;;;;;;0.7;0.7;;;;;;;30.49;40.89648;937.3672;;;;
2022/06/26 06:16:17;;;;;;;1;0.7;;;;;;;30.81;40.56738;937.4305;;;;
2022/06/26 06:18:48;;;;;;;0.6;0.6;;;;;;;30.91;40.03906;937.3638;;;;
2022/06/26 06:21:18;;;;;;;0.9;0.7;;;;;;;31.65;38.67871;937.3483;;;;
2022/06/26 06:23:49;;;;;;;0.8;0.8;;;;;;;31.73;38.74609;937.3069;;;;
2022/06/26 06:26:14;;;;;;;0.7;0.7;;;;;;;31.7;37.89355;937.2737;;;;
2022/06/26 06:28:43;;;;;;;0.7;0.7;;;;;;;30.11;40.21875;937.3081;;;;
2022/06/26 06:31:08;;;;;;;0.7;0.6;;;;;;;30.36;40.65918;937.2679;;;;
2022/06/26 06:33:35;;;;;;;1;0.6;;;;;;;30.58;40.46387;937.2327;;;;
2022/06/26 06:36:00;;;;;;;0.5;0.5;;;;;;;31.47;37.41895;937.2601;;;;
2022/06/26 06:38:28;;;;;;;0.8;0.8;;;;;;;30.73;41.05078;937.2313;;;;
2022/06/26 06:40:53;;;;;;;1.1;0.7;;;;;;;31.66;36.65625;937.1898;;;;
2022/06/26 06:43:22;;;;;;;0.9;0.7;;;;;;;31.47;39.0957;937.2153;;;;
2022/06/26 06:45:55;;;;;;;0.7;0.7;;;;;;;32.73;37.03125;937.1585;;;;
2022/06/26 06:48:29;;;;;;;0.9;0.6;;;;;;;32.34;36.72363;937.1117;;;;
2022/06/26 06:50:54;;;;;;;0.6;0.6;;;;;;;33.89;33.86426;937.1389;;;;
2022/06/26 06:53:24;;;;;;;1.6;0.8;;;;;;;32.35;35.56152;937.1044;;;;
2022/06/26 06:55:55;;;;;;;2.8;0.8;;;;;;;32.32;36.58887;937.0577;;;;
2022/06/26 06:58:23;;;;;;;0.8;0.8;;;;;;;32.6;36.17969;937.0609;;;;
2022/06/26 07:00:48;;;;;;;0.8;0.6;;;;;;;32.66;35.22461;937.0211;;;;
2022/06/26 07:03:21;;;;;;;1;0.7;;;;;;;33.69;35.26855;936.9769;;;;
2022/06/26 07:05:44;;;;;;;0.6;0.6;;;;;;;33.91;34.97266;937.0248;;;;
2022/06/26 07:08:14;;;;;;;1.6;0.6;;;;;;;34.6;34.02539;936.9972;;;;
2022/06/26 07:10:37;;;;;;;2.1;1;;;;;;;34.6;33.91699;936.9425;;;;
2022/06/26 07:13:10;;;;;;;1.3;0.8;;;;;;;34.28;33.27832;936.9685;;;;
2022/06/26 07:15:36;;;;;;;1.4;0.7;;;;;;;33.25;33.85254;936.9139;;;;
2022/06/26 07:18:06;;;;;;;0.6;0.6;;;;;;;34.64;33.09961;936.9258;;;;
2022/06/26 07:20:35;;;;;;;0.8;0.7;;;;;;;34.14;32.89551;936.8879;;;;
2022/06/26 07:23:01;;;;;;;0.9;0.7;;;;;;;33.34;33.1748;936.8759;;;;
2022/06/26 07:25:29;;;;;;;0.5;0.5;;;;;;;32.69;35.91113;936.8692;;;;
2022/06/26 07:27:54;;;;;;;1.6;0.6;;;;;;;34.59;33.81934;936.8491;;;;
2022/06/26 07:30:24;;;;;;;1.2;0.6;;;;;;;36.23;31.8125;936.8045;;;;
2022/06/26 07:32:53;;;;;;;0.8;0.6;;;;;;;37.63;28.54785;936.7751;;;;
2022/06/26 07:35:22;;;;;;;0.8;0.8;;;;;;;37.06;30.31934;936.7689;;;;
2022/06/26 07:37:52;;;;;;;1;0.6;;;;;;;38.53;28.50684;936.7859;;;;
2022/06/26 07:40:24;;;;;;;0.5;0.5;;;;;;;38.22;27.46777;936.7611;;;;
2022/06/26 07:42:53;;;;;;;1;0.7;;;;;;;37.97;27.86523;936.7625;;;;
2022/06/26 07:45:25;;;;;;;0.6;0.6;;;;;;;37.11;29.38867;936.712;;;;
2022/06/26 07:47:56;;;;;;;0.7;0.6;;;;;;;38.2;27.68555;936.7127;;;;
2022/06/26 07:50:26;;;;;;;0.6;0.6;;;;;;;38.27;26.875;936.7079;;;;
2022/06/26 07:52:51;;;;;;;0.7;0.7;;;;;;;36.97;29.48926;936.6447;;;;
2022/06/26 07:55:21;;;;;;;0.6;0.6;;;;;;;36.75;29.12305;936.6038;;;;
2022/06/26 07:57:51;;;;;;;5.2;1.2;;;;;;;37.05;30.7666;936.5623;;;;
2022/06/26 08:00:17;;;;;;;0.8;0.6;;;;;;;36.71;30.10156;936.5513;;;;
2022/06/26 08:02:48;;;;;;;1.8;0.7;;;;;;;36.5;29.33789;936.5145;;;;
2022/06/26 08:05:20;;;;;;;0.6;0.6;;;;;;;38.08;27.31348;936.5286;;;;
2022/06/26 08:07:49;;;;;;;0.9;0.6;;;;;;;37.21;28.47363;936.4777;;;;
2022/06/26 08:10:15;;;;;;;0.7;0.7;;;;;;;37.48;30.30957;936.4924;;;;
2022/06/26 08:12:46;;;;;;;0.6;0.6;;;;;;;37.54;30.84766;936.4559;;;;
2022/06/26 08:15:19;;;;;;;0.7;0.7;;;;;;;37.15;30.72461;936.4333;;;;
2022/06/26 08:17:45;;;;;;;0.6;0.6;;;;;;;37.44;29.94336;936.4252;;;;
2022/06/26 08:20:17;;;;;;;1.1;0.6;;;;;;;37.8;29.91797;936.427;;;;
2022/06/26 08:22:47;;;;;;;0.6;0.6;;;;;;;38.94;27.8877;936.3475;;;;
2022/06/26 08:25:19;;;;;;;0.8;0.8;;;;;;;36.84;30.94629;936.3466;;;;
2022/06/26 08:27:44;;;;;;;0.9;0.6;;;;;;;37.86;29.24316;936.3348;;;;
2022/06/26 08:30:16;;;;;;;1;0.7;;;;;;;38.09;29.35449;936.3217;;;;
2022/06/26 08:32:47;;;;;;;0.6;0.6;;;;;;;38.27;30.25293;936.3214;;;;
2022/06/26 08:35:21;;;;;;;0.5;0.5;;;;;;;37.48;28.62402;936.2303;;;;
2022/06/26 08:37:53;;;;;;;0.8;0.8;;;;;;;37.24;32.70703;936.2056;;;;
2022/06/26 08:40:26;;;;;;;1.1;0.6;;;;;;;37.57;28.1084;936.1886;;;;
2022/06/26 08:42:58;;;;;;;0.7;0.6;;;;;;;37.01;30.12109;936.1513;;;;
2022/06/26 08:45:24;;;;;;;1.1;0.6;;;;;;;35.97;31.72168;936.1336;;;;
2022/06/26 08:47:49;;;;;;;2;0.7;;;;;;;34.78;33.44824;936.1844;;;;
2022/06/26 08:50:21;;;;;;;0.6;0.6;;;;;;;35.84;30.44336;936.1722;;;;
2022/06/26 08:52:47;;;;;;;1.6;0.6;;;;;;;36.09;32.15332;936.1694;;;;
2022/06/26 08:55:19;;;;;;;0.6;0.6;;;;;;;37.45;30.32129;936.1947;;;;
2022/06/26 08:57:49;;;;;;;0.5;0.5;;;;;;;36.62;30.43457;936.1858;;;;
2022/06/26 09:00:14;;;;;;;1.2;0.6;;;;;;;34.88;35.61426;936.2184;;;;
2022/06/26 09:02:46;;;;;;;0.9;0.7;;;;;;;34.61;35.7373;936.1889;;;;
2022/06/26 09:05:13;;;;;;;2;0.5;;;;;;;34.41;33.08301;936.1944;;;;
2022/06/26 09:07:39;;;;;;;1.3;0.5;;;;;;;32.6;35.47266;936.2104;;;;
2022/06/26 09:10:16;;;;;;;0.7;0.7;;;;;;;33.12;37.60352;936.2033;;;;
2022/06/26 09:12:39;;;;;;;4.4;0.7;;;;;;;32.28;38.6377;936.2461;;;;
2022/06/26 09:15:04;;;;;;;0.9;0.5;;;;;;;32.85;38.24121;936.1962;;;;
2022/06/26 09:17:37;;;;;;;0.6;0.5;;;;;;;33.27;38.51758;936.1646;;;;
2022/06/26 09:20:10;;;;;;;1.3;0.6;;;;;;;32.53;38.51465;936.1689;;;;
2022/06/26 09:22:40;;;;;;;1.4;0.6;;;;;;;30.88;41.9375;936.1533;;;;
2022/06/26 09:25:05;;;;;;;0.8;0.6;;;;;;;30.54;40.56738;936.1127;;;;
2022/06/26 09:27:31;;;;;;;0.7;0.7;;;;;;;31.31;45.42285;936.0511;;;;
2022/06/26 09:29:58;;;;;;;0.7;0.7;;;;;;;32.03;45.02832;935.978;;;;
2022/06/26 09:32:23;;;;;;;3.1;1;;;;;;;30.97;42.20801;935.9742;;;;
2022/06/26 09:34:48;;;;;;;4.4;1;;;;;;;30.66;46.24219;936.0334;;;;
2022/06/26 09:37:13;;;;;;;2.2;0.8;;;;;;;30.48;45.43555;936.0598;;;;
2022/06/26 09:39:42;;;;;;;1.3;0.6;;;;;;;30.92;46.41309;936.0115;;;;
2022/06/26 09:42:06;;;;;;;1.1;0.6;;;;;;;31.3;43.77051;935.9828;;;;
2022/06/26 09:44:38;;;;;;;1.9;0.8;;;;;;;30.81;43.00684;935.9214;;;;
2022/06/26 09:47:03;;;;;;;1.7;0.7;;;;;;;30.3;46.3252;935.9185;;;;
2022/06/26 09:49:28;;;;;;;0.7;0.7;;;;;;;31.19;42.28906;935.9152;;;;
2022/06/26 09:51:57;;;;;;;1.1;0.8;;;;;;;31.46;44.08594;935.9056;;;;
2022/06/26 09:54:27;;;;;;;2;0.7;;;;;;;31;47.38867;935.7947;;;;
2022/06/26 09:56:52;;;;;;;0.6;0.6;;;;;;;30.85;45.73633;935.8792;;;;
2022/06/26 09:59:19;;;;;;;0.8;0.8;;;;;;;30.34;45.38574;935.8761;;;;
2022/06/26 10:06:48;;;;;;;0.8;0.8;;;;;;;30.5;44.99512;935.8049;;;;
2022/06/26 10:09:20;;;;;;;5.8;1;;;;;;;30.81;47.41797;935.7816;;;;
2022/06/26 10:11:48;;;;;;;1.8;0.9;;;;;;;30.71;46.98828;935.7581;;;;
2022/06/26 10:14:13;;;;;;;0.8;0.8;;;;;;;30.28;47.55273;935.8052;;;;
2022/06/26 10:16:39;;;;;;;2;0.8;;;;;;;30.17;46.98047;935.8351;;;;
2022/06/26 10:19:05;;;;;;;0.7;0.7;;;;;;;30.54;47.69922;935.7977;;;;
2022/06/26 10:21:29;;;;;;;1;0.8;;;;;;;30.63;46.34668;935.7969;;;;
2022/06/26 10:23:57;;;;;;;0.8;0.8;;;;;;;30.04;46.74023;935.808;;;;
2022/06/26 10:26:22;;;;;;;0.7;0.7;;;;;;;30.26;46.17773;935.7859;;;;
2022/06/26 10:28:47;;;;;;;1.5;0.7;;;;;;;30.15;45.13965;935.7857;;;;
2022/06/26 10:31:19;;;;;;;2.7;0.9;;;;;;;29.57;49.3252;935.774;;;;
2022/06/26 10:33:46;;;;;;;0.8;0.8;;;;;;;29.72;47.66016;935.7673;;;;
2022/06/26 10:36:15;;;;;;;0.7;0.7;;;;;;;29.94;46.80078;935.693;;;;
2022/06/26 10:38:47;;;;;;;1.8;0.9;;;;;;;29.71;51.12891;935.7271;;;;
2022/06/26 10:43:41;;;;;;;1;0.8;;;;;;;30.1;44.49023;935.6756;;;;
2022/06/26 10:46:06;;;;;;;2.1;0.7;;;;;;;30.3;43.39941;935.6815;;;;
2022/06/26 10:48:40;;;;;;;1.3;0.6;;;;;;;30.29;47.23145;935.6451;;;;
2022/06/26 10:51:05;;;;;;;1.2;0.7;;;;;;;30.25;45.98633;935.6799;;;;
2022/06/26 10:53:30;;;;;;;1.2;0.7;;;;;;;29.86;46.69727;935.6117;;;;
2022/06/26 10:55:55;;;;;;;1;0.6;;;;;;;29.95;47.91113;935.5872;;;;
2022/06/26 10:58:22;;;;;;;1.1;1;;;;;;;29.84;48.04297;935.5333;;;;
2022/06/26 11:00:50;;;;;;;0.6;0.6;;;;;;;29.88;46.86719;935.5272;;;;
2022/06/26 11:03:15;;;;;;;7.1;1;;;;;;;29.87;46.44727;935.5436;;;;
2022/06/26 11:05:49;;;;;;;4.7;1.5;;;;;;;30.17;46.34766;935.5637;;;;
2022/06/26 11:08:20;;;;;;;1.9;0.9;;;;;;;30.02;47.75195;935.5667;;;;
2022/06/26 11:10:45;;;;;;;4;0.9;;;;;;;29.97;48.66504;935.5201;;;;
2022/06/26 11:13:13;;;;;;;0.7;0.6;;;;;;;29.99;47.48633;935.4868;;;;
2022/06/26 11:15:40;;;;;;;2.7;0.9;;;;;;;30.15;46.2373;935.4864;;;;
2022/06/26 11:18:13;;;;;;;2.7;0.9;;;;;;;30;49.09766;935.4122;;;;
2022/06/26 11:20:50;;;;;;;1.5;0.9;;;;;;;30.13;45.83008;935.3958;;;;
2022/06/26 11:23:10;;;;;;;0.8;0.8;;;;;;;30.24;46.84473;935.3191;;;;
2022/06/26 11:25:38;;;;;;;1.3;0.8;;;;;;;29.51;50.71387;935.3301;;;;
2022/06/26 11:28:03;;;;;;;1;0.7;;;;;;;29.67;47.91699;935.2856;;;;
2022/06/26 11:30:34;;;;;;;2.6;0.8;;;;;;;29.96;46.3623;935.2422;;;;
2022/06/26 11:33:05;;;;;;;1;0.9;;;;;;;29.74;49.36816;935.2294;;;;
2022/06/26 11:35:36;;;;;;;1.6;0.9;;;;;;;29.89;47.30957;935.2495;;;;
2022/06/26 11:38:06;;;;;;;4.1;1;;;;;;;29.92;47.15723;935.2505;;;;
2022/06/26 11:40:31;;;;;;;1;0.8;;;;;;;29.95;46.84961;935.2397;;;;
2022/06/26 11:43:00;;;;;;;0.9;0.8;;;;;;;29.82;48.56543;935.2598;;;;
2022/06/26 11:45:26;;;;;;;1;0.9;;;;;;;29.72;49.71191;935.116;;;;
2022/06/26 11:47:56;;;;;;;1.8;0.9;;;;;;;29.8;47.77539;935.1017;;;;
2022/06/26 11:50:23;;;;;;;7.7;1.3;;;;;;;29.71;47.70703;935.0901;;;;
2022/06/26 11:52:51;;;;;;;1.1;1;;;;;;;29.6;50.5918;935.0572;;;;
2022/06/26 11:55:17;;;;;;;2.8;1.1;;;;;;;29.83;49.85449;935.1255;;;;
2022/06/26 11:57:44;;;;;;;1.7;0.9;;;;;;;29.91;48.96777;935.123;;;;
2022/06/26 12:00:10;;;;;;;0.9;0.8;;;;;;;30.07;45.28711;935.0989;;;;
2022/06/26 12:02:40;;;;;;;1.8;0.7;;;;;;;29.76;48.89258;935.0544;;;;
2022/06/26 12:05:15;;;;;;;1.1;0.8;;;;;;;29.51;48.04395;935.053;;;;
2022/06/26 12:07:46;;;;;;;1.5;0.9;;;;;;;28.97;50.83203;935.0159;;;;
2022/06/26 12:10:20;;;;;;;2.9;1.3;;;;;;;28.76;50.74902;935.0358;;;;
2022/06/26 12:12:45;;;;;;;0.9;0.8;;;;;;;28.08;52.25293;934.9791;;;;
2022/06/26 12:15:15;;;;;;;1;0.9;;;;;;;28.04;52.0332;934.9498;;;;
2022/06/26 12:17:40;;;;;;;1;0.7;;;;;;;28.31;51.35156;934.9185;;;;
2022/06/26 12:20:05;;;;;;;1.1;1;;;;;;;28.39;52.63184;934.8758;;;;
2022/06/26 12:22:36;;;;;;;0.8;0.8;;;;;;;28.7;49.89551;934.855;;;;
2022/06/26 12:25:01;;;;;;;1.3;0.9;;;;;;;28.86;47.27148;934.8762;;;;
2022/06/26 12:27:26;;;;;;;1.4;0.9;;;;;;;28.95;48.66211;934.8652;;;;
2022/06/26 12:29:53;;;;;;;1;0.9;;;;;;;28.48;50.14648;934.877;;;;
2022/06/26 12:32:17;;;;;;;1.2;1;;;;;;;27.86;52.09473;934.8128;;;;
2022/06/26 12:34:45;;;;;;;1.2;1;;;;;;;28.15;49.61133;934.7845;;;;
2022/06/26 12:37:11;;;;;;;0.8;0.8;;;;;;;28.4;50.29102;934.7883;;;;
2022/06/26 12:39:54;;;;;;;1;1;;;;;;;28.67;47.49023;934.78;;;;
2022/06/26 12:42:26;;;;;;;1.1;0.8;;;;;;;29;46.90625;934.7823;;;;
2022/06/26 12:44:55;;;;;;;0.9;0.9;;;;;;;29.04;49.17188;934.7848;;;;
2022/06/26 12:47:21;;;;;;;1;1;;;;;;;28.85;50.4248;934.8519;;;;
2022/06/26 12:49:48;;;;;;;0.8;0.8;;;;;;;29.04;47.44531;934.7733;;;;
2022/06/26 12:52:18;;;;;;;1.1;1;;;;;;;29;47.37012;934.7827;;;;
2022/06/26 12:54:43;;;;;;;0.7;0.7;;;;;;;28.91;47.53906;934.7832;;;;
2022/06/26 12:57:10;;;;;;;2;1;;;;;;;28.78;47.85938;934.7656;;;;
2022/06/26 12:59:39;;;;;;;1.7;0.8;;;;;;;28.69;52.57227;934.7974;;;;
2022/06/26 13:02:07;;;;;;;0.8;0.8;;;;;;;28.51;53.68164;934.776;;;;
2022/06/26 13:04:38;;;;;;;1;0.9;;;;;;;28.17;52.0957;934.759;;;;
2022/06/26 13:07:09;;;;;;;1.6;0.9;;;;;;;28.31;51.05469;934.7346;;;;
2022/06/26 13:09:40;;;;;;;1.2;0.8;;;;;;;28.29;51.49121;934.7231;;;;
2022/06/26 13:12:06;;;;;;;1.1;1;;;;;;;27.93;54.30176;934.7036;;;;
2022/06/26 13:14:33;;;;;;;1.2;0.8;;;;;;;28.18;50.70605;934.7239;;;;
2022/06/26 13:17:05;;;;;;;0.8;0.8;;;;;;;28.56;50.76172;934.6891;;;;
2022/06/26 13:19:33;;;;;;;1.1;1;;;;;;;28.61;53.52637;934.69;;;;
2022/06/26 13:21:58;;;;;;;1.3;1;;;;;;;28.87;53.90332;934.6561;;;;
2022/06/26 13:24:26;;;;;;;1;0.8;;;;;;;29.05;48.47168;934.5895;;;;
2022/06/26 13:26:51;;;;;;;1.1;0.9;;;;;;;28.91;50.25293;934.6547;;;;
2022/06/26 13:29:21;;;;;;;1.2;1.1;;;;;;;28.85;48.8418;934.6077;;;;
2022/06/26 13:31:50;;;;;;;2.5;0.9;;;;;;;29.02;50.04004;934.5762;;;;
2022/06/26 13:34:19;;;;;;;1.3;1.1;;;;;;;29.16;49.99414;934.576;;;;
2022/06/26 13:36:46;;;;;;;2.3;1.3;;;;;;;29.13;52.11133;934.5709;;;;
2022/06/26 13:39:15;;;;;;;1.2;1.1;;;;;;;29.32;48.96484;934.5234;;;;
2022/06/26 13:41:40;;;;;;;1.8;0.9;;;;;;;29.11;49.8584;934.4919;;;;
2022/06/26 13:44:05;;;;;;;1;1;;;;;;;28.89;47.64453;934.4764;;;;
2022/06/26 13:46:31;;;;;;;1.7;1.1;;;;;;;28.82;48.375;934.4207;;;;
2022/06/26 13:49:02;;;;;;;3.4;1.8;;;;;;;28.51;49.95898;934.5862;;;;
2022/06/26 13:51:51;;;;;;;2.2;1.2;;;;;;;28.41;50.22168;934.4852;;;;
2022/06/26 13:54:06;;;;;;;1.5;0.9;;;;;;;28.43;51.30566;934.5287;;;;
2022/06/26 13:56:30;;;;;;;2;1.1;;;;;;;28.5;50.62402;934.5309;;;;
2022/06/26 13:58:55;;;;;;;1.3;1.1;;;;;;;28.66;50.48633;934.5101;;;;
2022/06/26 14:01:20;;;;;;;2.6;1.2;;;;;;;28.88;49.72559;934.4961;;;;
2022/06/26 14:03:55;;;;;;;1.7;1;;;;;;;28.92;50.2666;934.5444;;;;
2022/06/26 14:06:39;;;;;;;3;1.2;;;;;;;29.18;50.06934;934.5355;;;;
2022/06/26 14:09:13;;;;;;;2.3;1.2;;;;;;;29.31;48.65332;934.509;;;;
2022/06/26 14:11:41;;;;;;;3.1;1.3;;;;;;;29.06;50.24609;934.4902;;;;
2022/06/26 14:14:07;;;;;;;2.6;1.3;;;;;;;29.17;47.87695;934.4139;;;;
2022/06/26 14:16:47;;;;;;;1.5;1.2;;;;;;;29.18;47.97266;934.47;;;;
2022/06/26 14:19:13;;;;;;;0.9;0.9;;;;;;;29.2;49.53516;934.4686;;;;
2022/06/26 14:21:41;;;;;;;1;1;;;;;;;29.28;49.54395;934.397;;;;
2022/06/26 14:26:35;;;;;;;2.8;1.2;;;;;;;29.51;49.80859;934.4994;;;;
2022/06/26 14:29:03;;;;;;;2.1;1.2;;;;;;;29.64;48.40332;934.5061;;;;
2022/06/26 14:31:29;;;;;;;1.5;1.2;;;;;;;29.64;47.50879;934.5652;;;;
2022/06/26 14:34:03;;;;;;;4.6;1.2;;;;;;;29.67;49.43164;934.4475;;;;
2022/06/26 14:36:27;;;;;;;1.2;1;;;;;;;29.73;48.86621;934.4481;;;;
2022/06/26 14:38:56;;;;;;;2.7;1.3;;;;;;;29.83;48.85352;934.5048;;;;
2022/06/26 14:41:21;;;;;;;2.2;1.1;;;;;;;29.98;48.02246;934.4646;;;;
2022/06/26 14:43:50;;;;;;;2.7;1.1;;;;;;;30.11;48.6084;934.4202;;;;
2022/06/26 14:46:15;;;;;;;0.8;0.8;;;;;;;30.19;47.78223;934.4297;;;;
2022/06/26 14:48:44;;;;;;;1.9;1;;;;;;;30.18;46.93359;934.4025;;;;
2022/06/26 14:51:16;;;;;;;1.3;1.1;;;;;;;29.76;47.4502;934.4052;;;;
2022/06/26 14:53:45;;;;;;;2;0.8;;;;;;;29.66;47.82129;934.4384;;;;
2022/06/26 14:56:10;;;;;;;2.6;1;;;;;;;29.37;47.84961;934.4293;;;;